createdAt,value
2023-03-18T00:01:36.385Z,18.70
2023-03-18T00:04:05.700Z,17.00
2023-03-18T00:06:34.434Z,16.17
2023-03-18T00:09:04.998Z,14.90
2023-03-18T00:11:33.708Z,17.30
2023-03-18T00:14:02.382Z,15.10
2023-03-18T00:16:31.143Z,16.33
2023-03-18T00:18:59.834Z,14.40
2023-03-18T00:21:28.584Z,15.80
2023-03-18T00:23:58.878Z,15.07
2023-03-18T00:26:30.059Z,14.70
2023-03-18T00:28:59.985Z,14.63
2023-03-18T00:31:30.085Z,18.37
2023-03-18T00:33:59.147Z,19.80
2023-03-18T00:36:27.896Z,12.77
2023-03-18T00:38:58.082Z,18.80
2023-03-18T00:41:29.276Z,13.10
2023-03-18T00:43:58.871Z,11.77
2023-03-18T00:46:30.035Z,13.70
2023-03-18T00:49:00.701Z,14.40
2023-03-18T00:51:31.700Z,16.03
2023-03-18T00:54:02.414Z,15.10
2023-03-18T00:56:33.401Z,12.87
2023-03-18T00:59:02.526Z,18.73
2023-03-18T01:01:31.674Z,15.93
2023-03-18T01:04:00.995Z,16.40
2023-03-18T01:06:32.696Z,15.20
2023-03-18T01:09:02.828Z,17.47
2023-03-18T01:11:33.497Z,13.43
2023-03-18T01:14:03.766Z,15.27
2023-03-18T01:16:32.618Z,13.63
2023-03-18T01:19:01.355Z,15.93
2023-03-18T01:21:30.176Z,15.67
2023-03-18T01:24:00.652Z,15.60
2023-03-18T01:26:29.674Z,12.67
2023-03-18T01:28:59.975Z,13.33
2023-03-18T01:31:28.837Z,13.93
2023-03-18T01:33:57.559Z,14.67
2023-03-18T01:36:26.301Z,13.73
2023-03-18T01:38:55.129Z,15.90
2023-03-18T01:41:23.875Z,14.80
2023-03-18T01:43:53.649Z,13.77
2023-03-18T01:46:36.699Z,15.77
2023-03-18T01:49:10.468Z,14.00
2023-03-18T01:51:40.984Z,12.90
2023-03-18T01:54:11.126Z,12.43
2023-03-18T01:56:44.703Z,12.73
2023-03-18T01:59:14.283Z,14.03
2023-03-18T02:01:51.681Z,16.83
2023-03-18T02:04:22.586Z,14.20
2023-03-18T02:06:51.320Z,15.60
2023-03-18T02:09:20.284Z,10.63
2023-03-18T02:11:51.006Z,9.67
2023-03-18T02:14:23.932Z,10.83
2023-03-18T02:17:01.224Z,9.87
2023-03-18T02:19:55.987Z,11.80
2023-03-18T02:22:31.252Z,12.00
2023-03-18T02:25:14.552Z,14.10
2023-03-18T02:27:48.767Z,10.43
2023-03-18T02:30:22.648Z,10.53
2023-03-18T02:32:53.116Z,9.20
2023-03-18T02:35:22.129Z,13.67
2023-03-18T02:37:50.973Z,10.53
2023-03-18T02:40:22.259Z,10.43
2023-03-18T02:42:52.686Z,10.67
2023-03-18T02:45:40.993Z,9.00
2023-03-18T02:48:13.088Z,9.20
2023-03-18T02:50:42.490Z,10.37
2023-03-18T02:53:13.779Z,10.47
2023-03-18T02:55:42.836Z,8.57
2023-03-18T02:58:13.189Z,9.67
2023-03-18T03:00:42.140Z,10.00
2023-03-18T03:03:11.157Z,10.30
2023-03-18T03:05:39.971Z,10.10
2023-03-18T03:08:08.898Z,12.53
2023-03-18T03:10:37.924Z,12.00
2023-03-18T03:13:07.671Z,9.67
2023-03-18T03:15:37.922Z,9.30
2023-03-18T03:18:07.149Z,8.23
2023-03-18T03:20:37.595Z,10.80
2023-03-18T03:23:06.616Z,10.90
2023-03-18T03:25:35.642Z,9.80
2023-03-18T03:28:05.242Z,8.20
2023-03-18T03:30:34.815Z,9.73
2023-03-18T03:33:05.388Z,11.07
2023-03-18T03:35:34.548Z,8.47
2023-03-18T03:38:03.445Z,7.27
2023-03-18T03:40:32.723Z,8.70
2023-03-18T03:43:01.792Z,8.23
2023-03-18T03:45:30.624Z,8.57
2023-03-18T03:47:59.365Z,6.90
2023-03-18T03:50:29.741Z,7.07
2023-03-18T03:52:58.689Z,8.60
2023-03-18T03:55:27.627Z,8.70
2023-03-18T03:57:56.739Z,7.10
2023-03-18T04:00:26.350Z,6.93
2023-03-18T04:02:56.494Z,7.03
2023-03-18T04:05:26.745Z,6.57
2023-03-18T04:08:00.115Z,9.03
2023-03-18T04:10:29.700Z,7.20
2023-03-18T04:12:59.036Z,10.17
2023-03-18T04:15:27.936Z,7.27
2023-03-18T04:17:56.661Z,9.20
2023-03-18T04:20:25.501Z,7.57
2023-03-18T04:22:54.224Z,9.40
2023-03-18T04:25:24.409Z,8.90
2023-03-18T04:27:53.999Z,12.00
2023-03-18T04:30:23.620Z,8.40
2023-03-18T04:32:52.493Z,10.00
2023-03-18T04:35:21.656Z,10.03
2023-03-18T04:37:50.478Z,9.03
2023-03-18T04:40:20.231Z,8.00
2023-03-18T04:42:50.402Z,7.93
2023-03-18T04:45:20.251Z,13.17
2023-03-18T04:47:49.679Z,9.07
2023-03-18T04:50:19.333Z,8.77
2023-03-18T04:52:48.627Z,18.43
2023-03-18T04:55:20.713Z,8.47
2023-03-18T04:57:51.349Z,8.73
2023-03-18T05:00:22.728Z,8.40
2023-03-18T05:02:51.716Z,7.73
2023-03-18T05:05:21.440Z,9.70
2023-03-18T05:07:50.140Z,7.33
2023-03-18T05:10:19.416Z,6.57
2023-03-18T05:12:48.869Z,7.90
2023-03-18T05:15:19.668Z,8.80
2023-03-18T05:17:48.416Z,9.50
2023-03-18T05:20:17.157Z,9.33
2023-03-18T05:22:45.932Z,7.23
2023-03-18T05:25:14.702Z,8.60
2023-03-18T05:27:43.544Z,8.53
2023-03-18T05:30:13.694Z,8.63
2023-03-18T05:32:44.439Z,10.20
2023-03-18T05:35:13.290Z,7.50
2023-03-18T05:37:43.659Z,11.53
2023-03-18T05:40:14.914Z,8.23
2023-03-18T05:42:55.401Z,10.97
2023-03-18T05:45:25.765Z,6.87
2023-03-18T05:47:55.974Z,11.00
2023-03-18T05:50:31.716Z,7.27
2023-03-18T05:53:01.053Z,7.17
2023-03-18T05:55:30.502Z,8.17
2023-03-18T05:58:00.635Z,6.33
2023-03-18T06:00:30.192Z,9.57
2023-03-18T06:03:01.782Z,9.23
2023-03-18T06:05:31.966Z,8.70
2023-03-18T06:08:02.210Z,6.77
2023-03-18T06:10:31.611Z,6.70
2023-03-18T06:13:00.491Z,5.50
2023-03-18T06:15:29.207Z,7.47
2023-03-18T06:17:59.375Z,6.30
2023-03-18T06:20:28.104Z,6.90
2023-03-18T06:22:56.876Z,7.60
2023-03-18T06:25:26.674Z,7.23
2023-03-18T06:27:55.474Z,6.67
2023-03-18T06:30:24.506Z,7.60
2023-03-18T06:32:53.610Z,9.27
2023-03-18T06:35:26.726Z,8.03
2023-03-18T06:37:56.090Z,6.40
2023-03-18T06:40:26.046Z,7.10
2023-03-18T06:42:54.803Z,7.60
2023-03-18T06:45:23.826Z,11.73
2023-03-18T06:47:52.545Z,8.13
2023-03-18T06:50:24.749Z,7.93
2023-03-18T06:52:54.418Z,6.27
2023-03-18T06:55:23.310Z,6.53
2023-03-18T06:57:52.771Z,10.70
2023-03-18T07:00:23.118Z,7.13
2023-03-18T07:02:52.645Z,5.10
2023-03-18T07:05:23.290Z,7.20
2023-03-18T07:07:52.295Z,6.40
2023-03-18T07:10:23.117Z,6.63
2023-03-18T07:12:52.654Z,7.10
2023-03-18T07:15:22.760Z,9.40
2023-03-18T07:17:54.166Z,5.60
2023-03-18T07:20:25.071Z,5.20
2023-03-18T07:22:56.335Z,7.03
2023-03-18T07:25:25.475Z,6.60
2023-03-18T07:27:54.817Z,10.17
2023-03-18T07:30:23.691Z,7.13
2023-03-18T07:32:52.597Z,5.60
2023-03-18T07:35:21.364Z,4.93
2023-03-18T07:37:52.143Z,5.17
2023-03-18T07:40:21.102Z,6.10
2023-03-18T07:42:51.739Z,7.90
2023-03-18T07:45:20.664Z,6.07
2023-03-18T07:47:52.766Z,5.37
2023-03-18T07:50:22.205Z,5.77
2023-03-18T07:52:52.608Z,7.40
2023-03-18T07:55:21.493Z,6.37
2023-03-18T07:57:50.595Z,5.37
2023-03-18T08:00:21.372Z,6.47
2023-03-18T08:02:50.228Z,4.73
2023-03-18T08:05:20.395Z,5.63
2023-03-18T08:07:49.874Z,6.80
2023-03-18T08:10:20.918Z,5.13
2023-03-18T08:12:53.441Z,5.77
2023-03-18T08:15:23.410Z,6.77
2023-03-18T08:17:52.889Z,6.87
2023-03-18T08:20:21.852Z,6.30
2023-03-18T08:22:50.658Z,5.97
2023-03-18T08:25:22.330Z,7.13
2023-03-18T08:27:52.610Z,6.37
2023-03-18T08:30:21.607Z,6.40
2023-03-18T08:32:50.437Z,5.50
2023-03-18T08:35:21.321Z,4.73
2023-03-18T08:37:51.453Z,7.33
2023-03-18T08:40:22.042Z,6.50
2023-03-18T08:42:50.820Z,7.60
2023-03-18T08:45:20.666Z,5.00
2023-03-18T08:47:50.312Z,5.33
2023-03-18T08:50:19.307Z,6.23
2023-03-18T08:52:48.054Z,5.33
2023-03-18T08:55:17.405Z,6.13
2023-03-18T08:57:47.772Z,7.03
2023-03-18T09:00:17.683Z,5.57
2023-03-18T09:02:46.430Z,7.07
2023-03-18T09:05:15.308Z,7.33
2023-03-18T09:07:44.178Z,5.10
2023-03-18T09:10:14.876Z,4.90
2023-03-18T09:12:43.928Z,6.13
2023-03-18T09:15:16.242Z,6.70
2023-03-18T09:18:00.034Z,5.10
2023-03-18T09:20:34.250Z,5.33
2023-03-18T09:23:03.186Z,6.37
2023-03-18T09:25:32.763Z,5.63
2023-03-18T09:28:02.293Z,5.50
2023-03-18T09:30:34.034Z,5.00
2023-03-18T09:33:03.167Z,5.97
2023-03-18T09:35:32.199Z,6.00
2023-03-18T09:38:01.570Z,8.10
2023-03-18T09:40:32.931Z,6.30
2023-03-18T09:43:16.025Z,6.63
2023-03-18T09:46:05.133Z,6.47
2023-03-18T09:48:46.223Z,4.87
2023-03-18T09:51:28.693Z,5.80
2023-03-18T09:54:00.388Z,5.87
2023-03-18T09:56:35.089Z,6.10
2023-03-18T09:59:07.958Z,5.60
2023-03-18T10:01:41.529Z,6.50
2023-03-18T10:04:18.572Z,5.10
2023-03-18T10:06:49.252Z,5.70
2023-03-18T10:09:26.633Z,5.33
2023-03-18T10:12:01.229Z,6.50
2023-03-18T10:14:43.965Z,5.30
2023-03-18T10:17:20.876Z,5.30
2023-03-18T10:19:53.626Z,6.17
2023-03-18T10:22:49.323Z,6.23
2023-03-18T10:25:24.392Z,5.63
2023-03-18T10:28:06.948Z,4.80
2023-03-18T10:30:51.502Z,5.43
2023-03-18T10:33:31.183Z,7.10
2023-03-18T10:36:08.029Z,5.70
2023-03-18T10:38:39.916Z,5.43
2023-03-18T10:41:18.163Z,6.83
2023-03-18T10:43:50.300Z,4.67
2023-03-18T10:46:22.051Z,5.87
2023-03-18T10:48:55.966Z,5.07
2023-03-18T10:51:34.847Z,5.20
2023-03-18T10:54:10.711Z,6.50
2023-03-18T10:56:39.733Z,4.73
2023-03-18T10:59:18.390Z,6.40
2023-03-18T11:01:50.288Z,6.27
2023-03-18T11:04:24.041Z,5.93
2023-03-18T11:06:57.943Z,5.03
2023-03-18T11:09:33.704Z,8.10
2023-03-18T11:12:07.067Z,5.60
2023-03-18T11:14:38.745Z,5.80
2023-03-18T11:17:22.248Z,5.90
2023-03-18T11:20:02.787Z,6.33
2023-03-18T11:22:33.331Z,8.83
2023-03-18T11:25:15.213Z,5.90
2023-03-18T11:27:46.579Z,6.03
2023-03-18T11:30:32.985Z,7.17
2023-03-18T11:33:08.338Z,6.43
2023-03-18T11:35:45.177Z,6.07
2023-03-18T11:38:21.634Z,5.50
2023-03-18T11:40:50.388Z,5.60
2023-03-18T11:43:21.597Z,6.30
2023-03-18T11:45:58.004Z,6.30
2023-03-18T11:48:39.525Z,5.87
2023-03-18T11:51:48.834Z,6.40
2023-03-18T11:54:48.072Z,7.23
2023-03-18T11:57:21.562Z,12.33
2023-03-18T12:00:17.898Z,6.00
2023-03-18T12:02:59.131Z,5.77
2023-03-18T12:05:53.452Z,6.40
2023-03-18T12:08:35.061Z,8.13
2023-03-18T12:11:13.208Z,5.90
2023-03-18T12:13:54.085Z,6.17
2023-03-18T12:16:36.655Z,7.63
2023-03-18T12:19:25.446Z,6.40
2023-03-18T12:22:16.465Z,6.30
2023-03-18T12:25:05.200Z,7.27
2023-03-18T12:27:43.402Z,7.43
2023-03-18T12:30:48.116Z,5.80
2023-03-18T12:33:34.323Z,8.53
2023-03-18T12:36:12.658Z,7.47
2023-03-18T12:39:06.052Z,6.20
2023-03-18T12:41:44.635Z,6.57
2023-03-18T12:44:39.060Z,6.93
2023-03-18T12:47:12.971Z,7.10
2023-03-18T12:49:47.822Z,7.50
2023-03-18T12:52:27.678Z,7.07
2023-03-18T12:55:02.767Z,6.80
2023-03-18T12:57:40.706Z,6.90
2023-03-18T13:00:20.452Z,7.27
2023-03-18T13:03:00.361Z,7.13
2023-03-18T13:05:38.463Z,6.90
2023-03-18T13:08:36.586Z,6.53
2023-03-18T13:11:12.641Z,7.33
2023-03-18T13:13:49.742Z,7.63
2023-03-18T13:16:20.944Z,7.23
2023-03-18T13:18:52.488Z,7.27
2023-03-18T13:21:24.647Z,10.57
2023-03-18T13:24:25.545Z,8.60
2023-03-18T13:27:14.092Z,7.63
2023-03-18T13:29:53.242Z,8.00
2023-03-18T13:32:40.498Z,8.00
2023-03-18T13:35:35.020Z,8.00
2023-03-18T13:38:26.588Z,8.00
2023-03-18T13:41:32.684Z,8.30
2023-03-18T13:44:06.896Z,7.10
2023-03-18T13:46:37.377Z,7.67
2023-03-18T13:49:06.797Z,8.00
2023-03-18T13:51:52.302Z,7.70
2023-03-18T13:54:22.510Z,7.40
2023-03-18T13:56:56.041Z,8.73
2023-03-18T13:59:47.886Z,8.57
2023-03-18T14:02:43.826Z,9.60
2023-03-18T14:05:42.711Z,7.90
2023-03-18T14:08:37.543Z,9.43
2023-03-18T14:11:50.405Z,9.03
2023-03-18T14:14:53.063Z,10.77
2023-03-18T14:17:28.299Z,9.20
2023-03-18T14:19:58.906Z,8.57
2023-03-18T14:22:37.480Z,9.07
2023-03-18T14:25:20.338Z,8.50
2023-03-18T14:27:52.193Z,8.97
2023-03-18T14:30:47.390Z,8.50
2023-03-18T14:33:41.348Z,8.40
2023-03-18T14:36:12.728Z,9.30
2023-03-18T14:38:48.331Z,12.43
2023-03-18T14:41:29.532Z,8.70
2023-03-18T14:44:23.573Z,9.93
2023-03-18T14:46:58.256Z,9.73
2023-03-18T14:49:44.350Z,9.53
2023-03-18T14:52:29.009Z,8.40
2023-03-18T14:55:00.704Z,9.00
2023-03-18T14:57:30.033Z,9.40
2023-03-18T15:00:00.928Z,8.87
2023-03-18T15:02:34.330Z,8.90
2023-03-18T15:05:03.401Z,10.87
2023-03-18T15:07:37.583Z,9.40
2023-03-18T15:10:11.625Z,8.93
2023-03-18T15:12:41.440Z,9.77
2023-03-18T15:15:16.625Z,9.73
2023-03-18T15:17:49.819Z,10.53
2023-03-18T15:20:19.082Z,13.40
2023-03-18T15:22:50.639Z,15.30
2023-03-18T15:25:21.913Z,10.17
2023-03-18T15:27:52.118Z,9.50
2023-03-18T15:30:28.912Z,11.23
2023-03-18T15:33:06.895Z,9.50
2023-03-18T15:35:37.808Z,9.53
2023-03-18T15:38:16.488Z,12.17
2023-03-18T15:40:51.302Z,10.23
2023-03-18T15:43:31.620Z,11.17
2023-03-18T15:46:02.962Z,11.70
2023-03-18T15:48:36.828Z,9.90
2023-03-18T15:51:08.736Z,9.60
2023-03-18T15:53:48.115Z,10.00
2023-03-18T15:56:19.970Z,11.43
2023-03-18T15:58:59.208Z,17.10
2023-03-18T16:01:28.937Z,10.70
2023-03-18T16:03:58.097Z,9.33
2023-03-18T16:06:27.149Z,12.07
2023-03-18T16:08:57.466Z,10.37
2023-03-18T16:11:26.507Z,11.70
2023-03-18T16:13:55.789Z,14.00
2023-03-18T16:16:29.682Z,10.70
2023-03-18T16:18:59.909Z,12.63
2023-03-18T16:21:29.033Z,12.40
2023-03-18T16:23:59.380Z,11.90
2023-03-18T16:26:28.496Z,10.97
2023-03-18T16:28:57.292Z,14.60
2023-03-18T16:31:26.478Z,20.43
2023-03-18T16:33:56.545Z,16.47
2023-03-18T16:36:35.204Z,14.97
2023-03-18T16:39:16.822Z,13.53
2023-03-18T16:41:46.728Z,16.53
2023-03-18T16:44:17.892Z,12.87
2023-03-18T16:46:49.867Z,14.33
2023-03-18T16:49:23.236Z,13.10
2023-03-18T16:51:52.365Z,14.70
2023-03-18T16:54:24.188Z,12.53
2023-03-18T16:56:56.195Z,14.30
2023-03-18T16:59:25.931Z,12.90
2023-03-18T17:01:55.276Z,14.70
2023-03-18T17:04:28.727Z,21.40
2023-03-18T17:06:59.196Z,13.27
2023-03-18T17:09:30.348Z,12.77
2023-03-18T17:12:03.305Z,15.03
2023-03-18T17:14:35.456Z,15.00
2023-03-18T17:17:07.361Z,12.37
2023-03-18T17:19:37.180Z,12.33
2023-03-18T17:22:16.286Z,14.53
2023-03-18T17:24:47.564Z,20.53
2023-03-18T17:27:20.121Z,14.67
2023-03-18T17:29:49.304Z,12.70
2023-03-18T17:32:20.401Z,25.23
2023-03-18T17:34:52.031Z,15.30
2023-03-18T17:37:24.191Z,17.20
2023-03-18T17:39:54.693Z,19.10
2023-03-18T17:42:31.605Z,17.67
2023-03-18T17:45:05.785Z,21.57
2023-03-18T17:47:38.045Z,24.57
2023-03-18T17:50:09.413Z,21.40
2023-03-18T17:52:39.540Z,24.37
2023-03-18T17:55:18.897Z,21.67
2023-03-18T17:57:49.894Z,21.80
2023-03-18T18:00:23.710Z,19.53
2023-03-18T18:02:55.107Z,20.23
2023-03-18T18:05:25.888Z,20.53
2023-03-18T18:07:56.560Z,29.60
2023-03-18T18:10:27.444Z,21.03
2023-03-18T18:12:56.739Z,18.73
2023-03-18T18:15:28.113Z,21.43
2023-03-18T18:17:58.405Z,22.93
2023-03-18T18:20:28.212Z,21.40
2023-03-18T18:22:59.330Z,17.97
2023-03-18T18:25:33.065Z,17.47
2023-03-18T18:28:02.775Z,19.67
2023-03-18T18:30:33.034Z,22.33
2023-03-18T18:33:03.411Z,22.57
2023-03-18T18:35:35.558Z,24.23
2023-03-18T18:38:05.017Z,22.53
2023-03-18T18:40:36.395Z,22.10
2023-03-18T18:43:06.889Z,18.93
2023-03-18T18:45:38.479Z,23.10
2023-03-18T18:48:16.218Z,17.07
2023-03-18T18:50:47.092Z,16.47
2023-03-18T18:53:24.986Z,19.90
2023-03-18T18:56:00.907Z,20.30
2023-03-18T18:58:33.474Z,17.40
2023-03-18T19:01:05.978Z,18.33
2023-03-18T19:03:38.260Z,18.10
2023-03-18T19:06:16.676Z,17.50
2023-03-18T19:08:48.889Z,21.20
2023-03-18T19:11:25.567Z,17.23
2023-03-18T19:13:56.647Z,17.33
2023-03-18T19:16:33.902Z,18.60
2023-03-18T19:19:04.839Z,17.80
2023-03-18T19:21:35.342Z,19.53
2023-03-18T19:24:12.059Z,16.97
2023-03-18T19:26:44.340Z,16.30
2023-03-18T19:29:14.731Z,16.37
2023-03-18T19:31:45.614Z,20.10
2023-03-18T19:34:19.420Z,19.63
2023-03-18T19:36:53.512Z,20.53
2023-03-18T19:39:25.696Z,20.17
2023-03-18T19:41:58.561Z,21.37
2023-03-18T19:44:32.209Z,20.73
2023-03-18T19:47:06.426Z,21.47
2023-03-18T19:49:41.331Z,18.83
2023-03-18T19:52:20.828Z,18.70
2023-03-18T19:54:52.121Z,19.43
2023-03-18T19:57:28.449Z,21.23
2023-03-18T20:00:01.054Z,25.33
2023-03-18T20:02:32.984Z,22.00
2023-03-18T20:05:05.438Z,21.37
2023-03-18T20:07:35.686Z,20.87
2023-03-18T20:10:12.509Z,20.33
2023-03-18T20:12:55.460Z,24.07
2023-03-18T20:15:31.641Z,24.10
2023-03-18T20:18:03.537Z,17.80
2023-03-18T20:20:35.524Z,20.33
2023-03-18T20:23:07.823Z,20.90
2023-03-18T20:25:42.029Z,18.37
2023-03-18T20:28:21.468Z,17.93
2023-03-18T20:30:57.147Z,21.80
2023-03-18T20:33:33.352Z,17.50
2023-03-18T20:36:05.324Z,18.53
2023-03-18T20:38:49.366Z,21.37
2023-03-18T20:41:30.067Z,18.87
2023-03-18T20:44:04.911Z,19.43
2023-03-18T20:46:47.111Z,18.10
2023-03-18T20:49:18.945Z,18.50
2023-03-18T20:51:51.613Z,18.93
2023-03-18T20:54:28.410Z,18.17
2023-03-18T20:57:01.650Z,21.33
2023-03-18T20:59:35.259Z,16.77
2023-03-18T21:02:08.368Z,19.10
2023-03-18T21:04:38.542Z,20.40
2023-03-18T21:07:12.378Z,15.83
2023-03-18T21:09:45.488Z,21.30
2023-03-18T21:12:19.097Z,16.37
2023-03-18T21:14:51.377Z,19.10
2023-03-18T21:17:23.152Z,18.03
2023-03-18T21:20:21.447Z,18.73
2023-03-18T21:22:53.894Z,15.03
2023-03-18T21:25:29.980Z,22.07
2023-03-18T21:28:00.585Z,22.97
2023-03-18T21:30:39.249Z,16.93
2023-03-18T21:33:21.603Z,17.40
2023-03-18T21:35:52.844Z,19.60
2023-03-18T21:38:21.928Z,21.47
2023-03-18T21:40:52.363Z,19.63
2023-03-18T21:43:33.036Z,18.40
2023-03-18T21:46:04.772Z,16.03
2023-03-18T21:48:34.613Z,18.60
2023-03-18T21:51:03.714Z,19.43
2023-03-18T21:53:32.742Z,16.63
2023-03-18T21:56:01.793Z,22.30
2023-03-18T21:58:30.897Z,20.53
2023-03-18T22:01:01.646Z,23.53
2023-03-18T22:03:32.253Z,17.00
2023-03-18T22:06:01.261Z,15.87
2023-03-18T22:08:30.182Z,16.93
2023-03-18T22:10:59.588Z,16.87
2023-03-18T22:13:29.143Z,18.80
2023-03-18T22:15:58.494Z,17.03
2023-03-18T22:18:27.338Z,17.50
2023-03-18T22:20:58.722Z,16.83
2023-03-18T22:23:30.158Z,18.47
2023-03-18T22:25:59.738Z,20.83
2023-03-18T22:28:29.374Z,20.07
2023-03-18T22:30:58.245Z,20.57
2023-03-18T22:33:30.035Z,16.83
2023-03-18T22:36:00.578Z,18.93
2023-03-18T22:38:30.222Z,19.83
2023-03-18T22:40:59.542Z,19.60
2023-03-18T22:43:31.910Z,20.63
2023-03-18T22:46:01.861Z,19.47
2023-03-18T22:48:30.701Z,19.83
2023-03-18T22:51:01.756Z,25.50
2023-03-18T22:53:33.035Z,20.77
2023-03-18T22:56:08.406Z,22.30
2023-03-18T22:58:37.273Z,22.97
2023-03-18T23:01:08.182Z,23.00
2023-03-18T23:03:40.627Z,23.03
2023-03-18T23:06:16.421Z,22.50
2023-03-18T23:08:46.563Z,25.37
2023-03-18T23:11:15.935Z,23.17
2023-03-18T23:13:46.467Z,21.57
2023-03-18T23:16:17.040Z,21.20
2023-03-18T23:18:45.868Z,25.53
2023-03-18T23:21:19.305Z,23.00
2023-03-18T23:23:48.170Z,25.27
2023-03-18T23:26:17.146Z,21.50
2023-03-18T23:28:46.099Z,23.40
2023-03-18T23:31:15.275Z,20.43
2023-03-18T23:33:44.621Z,18.90
2023-03-18T23:36:13.447Z,24.53
2023-03-18T23:38:43.684Z,19.47
2023-03-18T23:41:12.620Z,23.70
2023-03-18T23:43:41.374Z,20.20
2023-03-18T23:46:10.200Z,17.70
2023-03-18T23:48:39.087Z,20.13
2023-03-18T23:51:07.998Z,20.20
2023-03-18T23:53:36.765Z,24.10
2023-03-18T23:56:07.574Z,22.03
2023-03-18T23:58:36.360Z,24.90
